sensor_id;sensor_type;location;lat;lon;timestamp;temperature;humidity
32334;DHT22;18810;53.040;8.850;2023-04-03T00:00:06;3.10;99.90
32334;DHT22;18810;53.040;8.850;2023-04-03T00:02:32;3.20;99.90
32334;DHT22;18810;53.040;8.850;2023-04-03T00:04:58;3.20;99.90
32334;DHT22;18810;53.040;8.850;2023-04-03T00:07:23;3.10;99.90
32334;DHT22;18810;53.040;8.850;2023-04-03T00:09:49;3.10;99.90
32334;DHT22;18810;53.040;8.850;2023-04-03T00:12:15;3.00;99.90
32334;DHT22;18810;53.040;8.850;2023-04-03T00:14:41;3.00;99.90
32334;DHT22;18810;53.040;8.850;2023-04-03T00:17:07;2.90;99.90
32334;DHT22;18810;53.040;8.850;2023-04-03T00:19:32;2.90;99.90
32334;DHT22;18810;53.040;8.850;2023-04-03T00:21:58;2.80;99.90
32334;DHT22;18810;53.040;8.850;2023-04-03T00:24:24;2.80;99.90
32334;DHT22;18810;53.040;8.850;2023-04-03T00:26:50;2.80;99.90
32334;DHT22;18810;53.040;8.850;2023-04-03T00:29:15;2.80;99.90
32334;DHT22;18810;53.040;8.850;2023-04-03T00:31:41;2.80;99.90
32334;DHT22;18810;53.040;8.850;2023-04-03T00:34:07;2.70;99.90
32334;DHT22;18810;53.040;8.850;2023-04-03T00:36:32;2.70;99.90
32334;DHT22;18810;53.040;8.850;2023-04-03T00:38:58;2.70;99.90
32334;DHT22;18810;53.040;8.850;2023-04-03T00:41:24;2.60;99.90
32334;DHT22;18810;53.040;8.850;2023-04-03T00:43:50;2.60;99.90
32334;DHT22;18810;53.040;8.850;2023-04-03T00:46:16;2.50;99.90
32334;DHT22;18810;53.040;8.850;2023-04-03T00:48:46;2.50;99.90
32334;DHT22;18810;53.040;8.850;2023-04-03T00:51:24;2.50;99.90
32334;DHT22;18810;53.040;8.850;2023-04-03T00:54:01;2.50;99.90
32334;DHT22;18810;53.040;8.850;2023-04-03T00:56:30;2.40;99.90
32334;DHT22;18810;53.040;8.850;2023-04-03T00:59:02;2.40;99.90
32334;DHT22;18810;53.040;8.850;2023-04-03T01:01:29;2.30;99.90
32334;DHT22;18810;53.040;8.850;2023-04-03T01:03:56;2.30;99.90
32334;DHT22;18810;53.040;8.850;2023-04-03T01:06:29;2.30;99.90
32334;DHT22;18810;53.040;8.850;2023-04-03T01:09:00;2.20;99.90
32334;DHT22;18810;53.040;8.850;2023-04-03T01:11:26;2.20;99.90
32334;DHT22;18810;53.040;8.850;2023-04-03T01:13:52;2.20;99.90
32334;DHT22;18810;53.040;8.850;2023-04-03T01:16:19;2.10;99.90
32334;DHT22;18810;53.040;8.850;2023-04-03T01:18:45;2.10;99.90
32334;DHT22;18810;53.040;8.850;2023-04-03T01:26:43;2.00;99.90
32334;DHT22;18810;53.040;8.850;2023-04-03T01:29:09;1.90;99.90
32334;DHT22;18810;53.040;8.850;2023-04-03T01:34:01;2.00;99.90
32334;DHT22;18810;53.040;8.850;2023-04-03T01:36:29;1.90;99.90
32334;DHT22;18810;53.040;8.850;2023-04-03T01:38:56;1.90;99.90
32334;DHT22;18810;53.040;8.850;2023-04-03T01:41:23;1.90;99.90
32334;DHT22;18810;53.040;8.850;2023-04-03T01:43:49;1.80;99.90
32334;DHT22;18810;53.040;8.850;2023-04-03T01:46:16;1.80;99.90
32334;DHT22;18810;53.040;8.850;2023-04-03T01:48:42;1.80;99.90
32334;DHT22;18810;53.040;8.850;2023-04-03T01:51:08;1.80;99.90
32334;DHT22;18810;53.040;8.850;2023-04-03T01:53:35;1.80;99.90
32334;DHT22;18810;53.040;8.850;2023-04-03T01:56:03;1.80;99.90
32334;DHT22;18810;53.040;8.850;2023-04-03T01:58:29;1.80;99.90
32334;DHT22;18810;53.040;8.850;2023-04-03T02:00:58;1.80;99.90
32334;DHT22;18810;53.040;8.850;2023-04-03T02:03:24;1.70;99.90
32334;DHT22;18810;53.040;8.850;2023-04-03T02:05:50;3.00;99.90
32334;DHT22;18810;53.040;8.850;2023-04-03T02:08:16;1.70;99.90
32334;DHT22;18810;53.040;8.850;2023-04-03T02:10:44;1.70;99.90
32334;DHT22;18810;53.040;8.850;2023-04-03T02:13:10;1.70;99.90
32334;DHT22;18810;53.040;8.850;2023-04-03T02:15:39;1.70;99.90
32334;DHT22;18810;53.040;8.850;2023-04-03T02:18:06;1.60;99.90
32334;DHT22;18810;53.040;8.850;2023-04-03T02:20:33;1.60;99.90
32334;DHT22;18810;53.040;8.850;2023-04-03T02:22:59;1.60;99.90
32334;DHT22;18810;53.040;8.850;2023-04-03T02:25:25;1.60;99.90
32334;DHT22;18810;53.040;8.850;2023-04-03T02:27:51;1.60;99.90
32334;DHT22;18810;53.040;8.850;2023-04-03T02:30:17;1.50;99.90
32334;DHT22;18810;53.040;8.850;2023-04-03T02:32:43;1.50;99.90
32334;DHT22;18810;53.040;8.850;2023-04-03T02:35:10;1.50;99.90
32334;DHT22;18810;53.040;8.850;2023-04-03T02:37:36;1.50;99.90
32334;DHT22;18810;53.040;8.850;2023-04-03T02:40:02;1.50;99.90
32334;DHT22;18810;53.040;8.850;2023-04-03T02:42:32;1.50;99.90
32334;DHT22;18810;53.040;8.850;2023-04-03T02:44:58;1.40;99.90
32334;DHT22;18810;53.040;8.850;2023-04-03T02:47:26;1.40;99.90
32334;DHT22;18810;53.040;8.850;2023-04-03T02:49:52;1.40;99.90
32334;DHT22;18810;53.040;8.850;2023-04-03T02:52:18;1.40;99.90
32334;DHT22;18810;53.040;8.850;2023-04-03T02:54:44;1.30;99.90
32334;DHT22;18810;53.040;8.850;2023-04-03T02:57:10;1.30;99.90
32334;DHT22;18810;53.040;8.850;2023-04-03T02:59:41;1.30;99.90
32334;DHT22;18810;53.040;8.850;2023-04-03T03:02:08;1.30;99.90
32334;DHT22;18810;53.040;8.850;2023-04-03T03:04:34;1.30;99.90
32334;DHT22;18810;53.040;8.850;2023-04-03T03:07:00;1.20;99.90
32334;DHT22;18810;53.040;8.850;2023-04-03T03:09:25;1.20;99.90
32334;DHT22;18810;53.040;8.850;2023-04-03T03:11:52;1.20;99.90
32334;DHT22;18810;53.040;8.850;2023-04-03T03:14:21;1.20;99.90
32334;DHT22;18810;53.040;8.850;2023-04-03T03:16:46;1.20;99.90
32334;DHT22;18810;53.040;8.850;2023-04-03T03:19:12;1.20;99.90
32334;DHT22;18810;53.040;8.850;2023-04-03T03:21:38;1.10;99.90
32334;DHT22;18810;53.040;8.850;2023-04-03T03:24:03;1.00;99.90
32334;DHT22;18810;53.040;8.850;2023-04-03T03:26:29;1.00;99.90
32334;DHT22;18810;53.040;8.850;2023-04-03T03:28:55;1.00;99.90
32334;DHT22;18810;53.040;8.850;2023-04-03T03:31:21;1.00;99.90
32334;DHT22;18810;53.040;8.850;2023-04-03T03:33:47;1.10;99.90
32334;DHT22;18810;53.040;8.850;2023-04-03T03:36:12;1.00;99.90
32334;DHT22;18810;53.040;8.850;2023-04-03T03:38:38;1.00;99.90
32334;DHT22;18810;53.040;8.850;2023-04-03T03:41:04;1.00;99.90
32334;DHT22;18810;53.040;8.850;2023-04-03T03:43:30;1.00;99.90
32334;DHT22;18810;53.040;8.850;2023-04-03T03:45:55;0.90;99.90
32334;DHT22;18810;53.040;8.850;2023-04-03T03:48:22;0.90;99.90
32334;DHT22;18810;53.040;8.850;2023-04-03T03:50:48;0.90;99.90
32334;DHT22;18810;53.040;8.850;2023-04-03T03:53:14;0.90;99.90
32334;DHT22;18810;53.040;8.850;2023-04-03T03:55:41;0.90;99.90
32334;DHT22;18810;53.040;8.850;2023-04-03T03:58:07;0.80;99.90
32334;DHT22;18810;53.040;8.850;2023-04-03T04:00:33;0.90;99.90
32334;DHT22;18810;53.040;8.850;2023-04-03T04:02:59;0.90;99.90
32334;DHT22;18810;53.040;8.850;2023-04-03T04:05:24;0.90;99.90
32334;DHT22;18810;53.040;8.850;2023-04-03T04:07:50;0.90;99.90
32334;DHT22;18810;53.040;8.850;2023-04-03T04:10:16;0.90;99.90
32334;DHT22;18810;53.040;8.850;2023-04-03T04:12:42;0.80;99.90
32334;DHT22;18810;53.040;8.850;2023-04-03T04:15:08;0.80;99.90
32334;DHT22;18810;53.040;8.850;2023-04-03T04:17:34;0.80;99.90
32334;DHT22;18810;53.040;8.850;2023-04-03T04:20:01;0.80;99.90
32334;DHT22;18810;53.040;8.850;2023-04-03T04:22:30;0.80;99.90
32334;DHT22;18810;53.040;8.850;2023-04-03T04:24:56;0.70;99.90
32334;DHT22;18810;53.040;8.850;2023-04-03T04:27:22;0.70;99.90
32334;DHT22;18810;53.040;8.850;2023-04-03T04:29:47;0.60;99.90
32334;DHT22;18810;53.040;8.850;2023-04-03T04:32:13;0.60;99.90
32334;DHT22;18810;53.040;8.850;2023-04-03T04:34:39;0.60;99.90
32334;DHT22;18810;53.040;8.850;2023-04-03T04:37:05;0.60;99.90
32334;DHT22;18810;53.040;8.850;2023-04-03T04:39:30;0.60;99.90
32334;DHT22;18810;53.040;8.850;2023-04-03T04:41:56;0.50;99.90
32334;DHT22;18810;53.040;8.850;2023-04-03T04:44:22;0.50;99.90
32334;DHT22;18810;53.040;8.850;2023-04-03T04:46:47;0.50;99.90
32334;DHT22;18810;53.040;8.850;2023-04-03T04:49:13;0.50;99.90
32334;DHT22;18810;53.040;8.850;2023-04-03T04:51:39;0.50;99.90
32334;DHT22;18810;53.040;8.850;2023-04-03T04:54:05;0.60;99.90
32334;DHT22;18810;53.040;8.850;2023-04-03T04:56:31;0.70;99.90
32334;DHT22;18810;53.040;8.850;2023-04-03T04:58:56;0.70;99.90
32334;DHT22;18810;53.040;8.850;2023-04-03T05:01:22;0.70;99.90
32334;DHT22;18810;53.040;8.850;2023-04-03T05:03:48;0.70;99.90
32334;DHT22;18810;53.040;8.850;2023-04-03T05:06:14;0.60;99.90
32334;DHT22;18810;53.040;8.850;2023-04-03T05:08:39;0.60;99.90
32334;DHT22;18810;53.040;8.850;2023-04-03T05:11:05;0.70;99.90
32334;DHT22;18810;53.040;8.850;2023-04-03T05:13:31;0.70;99.90
32334;DHT22;18810;53.040;8.850;2023-04-03T05:15:56;0.70;99.90
32334;DHT22;18810;53.040;8.850;2023-04-03T05:18:25;0.70;99.90
32334;DHT22;18810;53.040;8.850;2023-04-03T05:20:50;0.70;99.90
32334;DHT22;18810;53.040;8.850;2023-04-03T05:23:16;0.70;99.90
32334;DHT22;18810;53.040;8.850;2023-04-03T05:25:42;0.70;99.90
32334;DHT22;18810;53.040;8.850;2023-04-03T05:28:11;0.90;99.90
32334;DHT22;18810;53.040;8.850;2023-04-03T05:30:36;0.90;99.90
32334;DHT22;18810;53.040;8.850;2023-04-03T05:33:02;0.90;99.90
32334;DHT22;18810;53.040;8.850;2023-04-03T05:35:28;1.00;99.90
32334;DHT22;18810;53.040;8.850;2023-04-03T05:37:54;1.00;99.90
32334;DHT22;18810;53.040;8.850;2023-04-03T05:40:20;1.00;99.90
32334;DHT22;18810;53.040;8.850;2023-04-03T05:42:46;1.40;99.90
32334;DHT22;18810;53.040;8.850;2023-04-03T05:45:11;3.00;99.90
32334;DHT22;18810;53.040;8.850;2023-04-03T05:47:37;4.80;99.90
32334;DHT22;18810;53.040;8.850;2023-04-03T05:50:03;6.60;99.90
32334;DHT22;18810;53.040;8.850;2023-04-03T05:52:37;7.80;99.90
32334;DHT22;18810;53.040;8.850;2023-04-03T05:55:04;8.60;99.90
32334;DHT22;18810;53.040;8.850;2023-04-03T05:57:31;9.00;99.90
32334;DHT22;18810;53.040;8.850;2023-04-03T05:59:56;9.10;99.90
32334;DHT22;18810;53.040;8.850;2023-04-03T06:02:23;9.20;99.90
32334;DHT22;18810;53.040;8.850;2023-04-03T06:04:49;9.10;99.90
32334;DHT22;18810;53.040;8.850;2023-04-03T06:07:18;9.10;99.90
32334;DHT22;18810;53.040;8.850;2023-04-03T06:09:47;8.90;99.90
32334;DHT22;18810;53.040;8.850;2023-04-03T06:12:13;8.70;99.90
32334;DHT22;18810;53.040;8.850;2023-04-03T06:14:39;8.10;99.90
32334;DHT22;18810;53.040;8.850;2023-04-03T06:17:05;7.60;99.90
32334;DHT22;18810;53.040;8.850;2023-04-03T06:19:31;6.80;99.90
32334;DHT22;18810;53.040;8.850;2023-04-03T06:21:57;6.10;99.90
32334;DHT22;18810;53.040;8.850;2023-04-03T06:24:23;5.70;99.90
32334;DHT22;18810;53.040;8.850;2023-04-03T06:26:53;5.40;99.90
32334;DHT22;18810;53.040;8.850;2023-04-03T06:29:19;5.60;99.90
32334;DHT22;18810;53.040;8.850;2023-04-03T06:31:46;5.90;99.90
32334;DHT22;18810;53.040;8.850;2023-04-03T06:34:12;6.10;99.90
32334;DHT22;18810;53.040;8.850;2023-04-03T06:36:39;6.30;99.90
32334;DHT22;18810;53.040;8.850;2023-04-03T06:39:05;6.10;99.90
32334;DHT22;18810;53.040;8.850;2023-04-03T06:41:32;6.00;99.90
32334;DHT22;18810;53.040;8.850;2023-04-03T06:43:58;6.10;99.90
32334;DHT22;18810;53.040;8.850;2023-04-03T06:46:25;6.00;99.90
32334;DHT22;18810;53.040;8.850;2023-04-03T06:48:52;6.00;99.90
32334;DHT22;18810;53.040;8.850;2023-04-03T06:51:26;5.90;99.90
32334;DHT22;18810;53.040;8.850;2023-04-03T06:53:57;6.00;99.90
32334;DHT22;18810;53.040;8.850;2023-04-03T06:56:23;6.10;99.90
32334;DHT22;18810;53.040;8.850;2023-04-03T06:58:49;6.20;99.90
32334;DHT22;18810;53.040;8.850;2023-04-03T07:01:19;6.10;99.90
32334;DHT22;18810;53.040;8.850;2023-04-03T07:03:46;6.40;99.90
32334;DHT22;18810;53.040;8.850;2023-04-03T07:06:15;6.50;99.90
32334;DHT22;18810;53.040;8.850;2023-04-03T07:08:41;6.40;99.90
32334;DHT22;18810;53.040;8.850;2023-04-03T07:11:08;6.50;99.90
32334;DHT22;18810;53.040;8.850;2023-04-03T07:13:34;6.60;99.90
32334;DHT22;18810;53.040;8.850;2023-04-03T07:16:02;6.70;99.90
32334;DHT22;18810;53.040;8.850;2023-04-03T07:18:29;6.90;99.90
32334;DHT22;18810;53.040;8.850;2023-04-03T07:20:55;6.90;99.90
32334;DHT22;18810;53.040;8.850;2023-04-03T07:23:21;6.90;99.90
32334;DHT22;18810;53.040;8.850;2023-04-03T07:25:48;7.20;99.90
32334;DHT22;18810;53.040;8.850;2023-04-03T07:28:16;7.20;99.90
32334;DHT22;18810;53.040;8.850;2023-04-03T07:30:49;7.30;99.90
32334;DHT22;18810;53.040;8.850;2023-04-03T07:33:16;7.40;99.90
32334;DHT22;18810;53.040;8.850;2023-04-03T07:35:43;6.20;99.90
32334;DHT22;18810;53.040;8.850;2023-04-03T07:38:09;7.90;99.90
32334;DHT22;18810;53.040;8.850;2023-04-03T07:40:36;7.80;99.90
32334;DHT22;18810;53.040;8.850;2023-04-03T07:43:02;8.00;99.90
32334;DHT22;18810;53.040;8.850;2023-04-03T07:45:28;8.00;99.90
32334;DHT22;18810;53.040;8.850;2023-04-03T07:47:54;7.80;99.90
32334;DHT22;18810;53.040;8.850;2023-04-03T07:50:24;7.80;99.90
32334;DHT22;18810;53.040;8.850;2023-04-03T07:52:50;8.10;99.90
32334;DHT22;18810;53.040;8.850;2023-04-03T07:55:16;8.50;99.40
32334;DHT22;18810;53.040;8.850;2023-04-03T07:57:42;8.60;99.00
32334;DHT22;18810;53.040;8.850;2023-04-03T08:00:08;8.60;98.50
32334;DHT22;18810;53.040;8.850;2023-04-03T08:02:35;8.90;98.10
32334;DHT22;18810;53.040;8.850;2023-04-03T08:05:01;9.10;97.90
32334;DHT22;18810;53.040;8.850;2023-04-03T08:07:26;9.10;97.00
32334;DHT22;18810;53.040;8.850;2023-04-03T08:09:52;9.10;97.50
32334;DHT22;18810;53.040;8.850;2023-04-03T08:12:18;9.30;97.10
32334;DHT22;18810;53.040;8.850;2023-04-03T08:14:44;9.50;96.50
32334;DHT22;18810;53.040;8.850;2023-04-03T08:17:10;9.60;95.80
32334;DHT22;18810;53.040;8.850;2023-04-03T08:19:40;9.40;95.50
32334;DHT22;18810;53.040;8.850;2023-04-03T08:22:06;9.60;95.40
32334;DHT22;18810;53.040;8.850;2023-04-03T08:24:33;9.60;94.30
32334;DHT22;18810;53.040;8.850;2023-04-03T08:27:00;9.50;93.90
32334;DHT22;18810;53.040;8.850;2023-04-03T08:29:26;9.30;94.40
32334;DHT22;18810;53.040;8.850;2023-04-03T08:31:52;9.50;94.90
32334;DHT22;18810;53.040;8.850;2023-04-03T08:34:19;9.70;94.00
32334;DHT22;18810;53.040;8.850;2023-04-03T08:36:44;9.80;93.20
32334;DHT22;18810;53.040;8.850;2023-04-03T08:39:10;9.90;93.10
32334;DHT22;18810;53.040;8.850;2023-04-03T08:41:43;10.00;93.00
32334;DHT22;18810;53.040;8.850;2023-04-03T08:47:24;10.50;92.20
32334;DHT22;18810;53.040;8.850;2023-04-03T08:49:58;11.10;91.00
32334;DHT22;18810;53.040;8.850;2023-04-03T08:52:44;11.10;90.90
32334;DHT22;18810;53.040;8.850;2023-04-03T08:57:52;11.60;88.20
32334;DHT22;18810;53.040;8.850;2023-04-03T09:00:20;11.30;85.70
32334;DHT22;18810;53.040;8.850;2023-04-03T09:05:22;11.50;86.00
32334;DHT22;18810;53.040;8.850;2023-04-03T09:10:33;11.60;82.60
32334;DHT22;18810;53.040;8.850;2023-04-03T09:13:08;11.70;82.30
32334;DHT22;18810;53.040;8.850;2023-04-03T09:15:36;12.10;82.30
32334;DHT22;18810;53.040;8.850;2023-04-03T09:18:23;12.60;80.70
32334;DHT22;18810;53.040;8.850;2023-04-03T09:21:32;12.60;79.60
32334;DHT22;18810;53.040;8.850;2023-04-03T09:24:00;12.40;80.80
32334;DHT22;18810;53.040;8.850;2023-04-03T09:26:53;12.80;78.90
32334;DHT22;18810;53.040;8.850;2023-04-03T09:29:23;13.10;79.00
32334;DHT22;18810;53.040;8.850;2023-04-03T09:31:56;13.10;78.30
32334;DHT22;18810;53.040;8.850;2023-04-03T09:34:37;13.40;77.30
32334;DHT22;18810;53.040;8.850;2023-04-03T09:37:06;13.80;75.90
32334;DHT22;18810;53.040;8.850;2023-04-03T09:39:49;13.40;76.80
32334;DHT22;18810;53.040;8.850;2023-04-03T09:42:23;13.70;76.70
32334;DHT22;18810;53.040;8.850;2023-04-03T09:44:59;13.90;74.20
32334;DHT22;18810;53.040;8.850;2023-04-03T09:47:30;13.90;73.30
32334;DHT22;18810;53.040;8.850;2023-04-03T09:52:43;14.40;71.70
32334;DHT22;18810;53.040;8.850;2023-04-03T09:55:19;14.20;70.50
32334;DHT22;18810;53.040;8.850;2023-04-03T09:57:58;14.40;68.90
32334;DHT22;18810;53.040;8.850;2023-04-03T10:00:31;14.40;69.60
32334;DHT22;18810;53.040;8.850;2023-04-03T10:02:58;14.10;70.00
32334;DHT22;18810;53.040;8.850;2023-04-03T10:05:33;14.40;71.30
32334;DHT22;18810;53.040;8.850;2023-04-03T10:10:45;15.50;71.00
32334;DHT22;18810;53.040;8.850;2023-04-03T10:13:20;15.30;68.40
32334;DHT22;18810;53.040;8.850;2023-04-03T10:15:55;15.30;70.00
32334;DHT22;18810;53.040;8.850;2023-04-03T10:23:53;17.00;65.70
32334;DHT22;18810;53.040;8.850;2023-04-03T10:29:38;16.90;63.80
32334;DHT22;18810;53.040;8.850;2023-04-03T10:35:04;17.20;61.60
32334;DHT22;18810;53.040;8.850;2023-04-03T10:43:29;17.90;60.00
32334;DHT22;18810;53.040;8.850;2023-04-03T10:51:33;17.80;59.60
32334;DHT22;18810;53.040;8.850;2023-04-03T10:54:11;18.50;58.80
32334;DHT22;18810;53.040;8.850;2023-04-03T10:56:48;19.10;57.40
32334;DHT22;18810;53.040;8.850;2023-04-03T11:00:00;18.70;57.30
32334;DHT22;18810;53.040;8.850;2023-04-03T11:02:48;18.80;56.60
32334;DHT22;18810;53.040;8.850;2023-04-03T11:07:56;19.50;57.60
32334;DHT22;18810;53.040;8.850;2023-04-03T11:10:42;19.80;55.40
32334;DHT22;18810;53.040;8.850;2023-04-03T11:13:21;19.90;56.10
32334;DHT22;18810;53.040;8.850;2023-04-03T11:15:49;19.10;54.90
32334;DHT22;18810;53.040;8.850;2023-04-03T11:18:23;18.50;55.10
32334;DHT22;18810;53.040;8.850;2023-04-03T11:21:03;18.20;55.50
32334;DHT22;18810;53.040;8.850;2023-04-03T11:23:35;17.20;55.30
32334;DHT22;18810;53.040;8.850;2023-04-03T11:26:13;17.10;57.60
32334;DHT22;18810;53.040;8.850;2023-04-03T11:28:40;17.80;56.60
32334;DHT22;18810;53.040;8.850;2023-04-03T11:36:32;19.10;58.10
32334;DHT22;18810;53.040;8.850;2023-04-03T11:39:23;19.90;55.20
32334;DHT22;18810;53.040;8.850;2023-04-03T11:41:49;20.20;55.00
32334;DHT22;18810;53.040;8.850;2023-04-03T11:44:34;20.60;54.30
32334;DHT22;18810;53.040;8.850;2023-04-03T11:47:03;20.70;54.20
32334;DHT22;18810;53.040;8.850;2023-04-03T11:49:59;21.30;53.00
32334;DHT22;18810;53.040;8.850;2023-04-03T12:16:22;19.00;54.20
32334;DHT22;18810;53.040;8.850;2023-04-03T12:21:16;19.90;52.90
32334;DHT22;18810;53.040;8.850;2023-04-03T12:24:33;20.20;53.00
32334;DHT22;18810;53.040;8.850;2023-04-03T12:29:43;17.80;54.30
32334;DHT22;18810;53.040;8.850;2023-04-03T12:40:25;18.40;55.70
32334;DHT22;18810;53.040;8.850;2023-04-03T12:45:26;20.00;51.50
32334;DHT22;18810;53.040;8.850;2023-04-03T12:47:55;20.10;51.60
32334;DHT22;18810;53.040;8.850;2023-04-03T12:50:40;20.30;51.40
32334;DHT22;18810;53.040;8.850;2023-04-03T12:56:30;20.70;51.20
32334;DHT22;18810;53.040;8.850;2023-04-03T12:59:20;21.10;51.40
32334;DHT22;18810;53.040;8.850;2023-04-03T13:02:43;20.90;50.40
32334;DHT22;18810;53.040;8.850;2023-04-03T13:05:07;21.50;50.40
32334;DHT22;18810;53.040;8.850;2023-04-03T13:07:35;20.80;50.00
32334;DHT22;18810;53.040;8.850;2023-04-03T13:12:34;19.60;52.70
32334;DHT22;18810;53.040;8.850;2023-04-03T13:15:39;18.50;54.10
32334;DHT22;18810;53.040;8.850;2023-04-03T13:18:02;17.90;55.00
32334;DHT22;18810;53.040;8.850;2023-04-03T13:20:33;17.50;55.30
32334;DHT22;18810;53.040;8.850;2023-04-03T13:23:07;16.90;54.80
32334;DHT22;18810;53.040;8.850;2023-04-03T13:25:40;16.80;55.60
32334;DHT22;18810;53.040;8.850;2023-04-03T13:28:09;17.80;55.80
32334;DHT22;18810;53.040;8.850;2023-04-03T13:30:37;18.80;53.20
32334;DHT22;18810;53.040;8.850;2023-04-03T13:33:06;19.50;52.80
32334;DHT22;18810;53.040;8.850;2023-04-03T13:35:38;20.20;52.70
32334;DHT22;18810;53.040;8.850;2023-04-03T13:40:55;21.10;50.20
32334;DHT22;18810;53.040;8.850;2023-04-03T13:43:27;20.80;50.00
32334;DHT22;18810;53.040;8.850;2023-04-03T13:48:35;21.40;50.20
32334;DHT22;18810;53.040;8.850;2023-04-03T13:51:26;20.50;51.00
32334;DHT22;18810;53.040;8.850;2023-04-03T13:54:00;20.80;50.20
32334;DHT22;18810;53.040;8.850;2023-04-03T13:56:37;20.10;51.30
32334;DHT22;18810;53.040;8.850;2023-04-03T13:59:05;19.80;51.80
32334;DHT22;18810;53.040;8.850;2023-04-03T14:01:46;20.30;51.50
32334;DHT22;18810;53.040;8.850;2023-04-03T14:04:17;19.50;51.10
32334;DHT22;18810;53.040;8.850;2023-04-03T14:06:43;18.00;52.50
32334;DHT22;18810;53.040;8.850;2023-04-03T14:09:10;16.80;54.30
32334;DHT22;18810;53.040;8.850;2023-04-03T14:11:36;17.30;53.30
32334;DHT22;18810;53.040;8.850;2023-04-03T14:14:09;18.50;53.00
32334;DHT22;18810;53.040;8.850;2023-04-03T14:16:39;19.80;51.20
32334;DHT22;18810;53.040;8.850;2023-04-03T14:19:06;20.50;51.00
32334;DHT22;18810;53.040;8.850;2023-04-03T14:21:32;20.90;49.20
32334;DHT22;18810;53.040;8.850;2023-04-03T14:23:57;21.20;49.50
32334;DHT22;18810;53.040;8.850;2023-04-03T14:26:24;20.00;50.00
32334;DHT22;18810;53.040;8.850;2023-04-03T14:28:53;18.20;51.80
32334;DHT22;18810;53.040;8.850;2023-04-03T14:31:20;17.00;53.80
32334;DHT22;18810;53.040;8.850;2023-04-03T14:33:47;16.60;54.80
32334;DHT22;18810;53.040;8.850;2023-04-03T14:36:27;16.50;56.40
32334;DHT22;18810;53.040;8.850;2023-04-03T14:38:53;16.60;56.40
32334;DHT22;18810;53.040;8.850;2023-04-03T14:41:21;17.10;56.20
32334;DHT22;18810;53.040;8.850;2023-04-03T14:43:48;17.90;56.00
32334;DHT22;18810;53.040;8.850;2023-04-03T14:46:17;18.00;53.60
32334;DHT22;18810;53.040;8.850;2023-04-03T14:48:43;17.60;53.80
32334;DHT22;18810;53.040;8.850;2023-04-03T14:51:14;17.00;55.30
32334;DHT22;18810;53.040;8.850;2023-04-03T14:53:41;17.20;54.90
32334;DHT22;18810;53.040;8.850;2023-04-03T14:56:28;17.70;53.70
32334;DHT22;18810;53.040;8.850;2023-04-03T14:58:59;18.80;53.40
32334;DHT22;18810;53.040;8.850;2023-04-03T15:01:27;20.10;51.10
32334;DHT22;18810;53.040;8.850;2023-04-03T15:03:54;20.90;50.50
32334;DHT22;18810;53.040;8.850;2023-04-03T15:06:20;21.00;50.30
32334;DHT22;18810;53.040;8.850;2023-04-03T15:08:47;20.50;50.50
32334;DHT22;18810;53.040;8.850;2023-04-03T15:11:14;19.60;52.00
32334;DHT22;18810;53.040;8.850;2023-04-03T15:13:40;18.70;51.90
32334;DHT22;18810;53.040;8.850;2023-04-03T15:16:18;18.20;53.70
32334;DHT22;18810;53.040;8.850;2023-04-03T15:18:45;17.70;55.60
32334;DHT22;18810;53.040;8.850;2023-04-03T15:21:12;18.00;57.40
32334;DHT22;18810;53.040;8.850;2023-04-03T15:23:37;18.90;56.60
32334;DHT22;18810;53.040;8.850;2023-04-03T15:26:03;19.40;55.60
32334;DHT22;18810;53.040;8.850;2023-04-03T15:28:36;19.90;54.20
32334;DHT22;18810;53.040;8.850;2023-04-03T15:31:03;20.60;51.50
32334;DHT22;18810;53.040;8.850;2023-04-03T15:33:30;21.30;50.00
32334;DHT22;18810;53.040;8.850;2023-04-03T15:35:56;21.10;49.80
32334;DHT22;18810;53.040;8.850;2023-04-03T15:38:22;20.70;49.00
32334;DHT22;18810;53.040;8.850;2023-04-03T15:40:47;19.90;50.00
32334;DHT22;18810;53.040;8.850;2023-04-03T15:43:14;19.00;50.60
32334;DHT22;18810;53.040;8.850;2023-04-03T15:45:40;18.20;51.70
32334;DHT22;18810;53.040;8.850;2023-04-03T15:48:07;17.50;53.80
32334;DHT22;18810;53.040;8.850;2023-04-03T15:50:34;16.80;55.50
32334;DHT22;18810;53.040;8.850;2023-04-03T15:53:00;16.50;56.30
32334;DHT22;18810;53.040;8.850;2023-04-03T15:55:29;16.80;56.10
32334;DHT22;18810;53.040;8.850;2023-04-03T15:57:55;17.60;54.70
32334;DHT22;18810;53.040;8.850;2023-04-03T16:00:23;18.10;53.40
32334;DHT22;18810;53.040;8.850;2023-04-03T16:02:52;17.90;52.50
32334;DHT22;18810;53.040;8.850;2023-04-03T16:05:18;18.10;52.60
32334;DHT22;18810;53.040;8.850;2023-04-03T16:07:45;18.00;53.00
32334;DHT22;18810;53.040;8.850;2023-04-03T16:10:12;17.90;53.10
32334;DHT22;18810;53.040;8.850;2023-04-03T16:12:38;17.60;53.00
32334;DHT22;18810;53.040;8.850;2023-04-03T16:15:04;17.10;54.70
32334;DHT22;18810;53.040;8.850;2023-04-03T16:17:32;16.90;54.70
32334;DHT22;18810;53.040;8.850;2023-04-03T16:19:58;17.00;54.00
32334;DHT22;18810;53.040;8.850;2023-04-03T16:22:28;16.90;55.50
32334;DHT22;18810;53.040;8.850;2023-04-03T16:24:55;17.40;54.00
32334;DHT22;18810;53.040;8.850;2023-04-03T16:27:21;17.40;53.90
32334;DHT22;18810;53.040;8.850;2023-04-03T16:29:47;17.20;53.50
32334;DHT22;18810;53.040;8.850;2023-04-03T16:32:13;17.00;53.60
32334;DHT22;18810;53.040;8.850;2023-04-03T16:34:40;17.10;54.10
32334;DHT22;18810;53.040;8.850;2023-04-03T16:37:06;17.00;53.70
32334;DHT22;18810;53.040;8.850;2023-04-03T16:39:35;16.60;54.00
32334;DHT22;18810;53.040;8.850;2023-04-03T16:42:01;16.20;54.80
32334;DHT22;18810;53.040;8.850;2023-04-03T16:44:27;15.70;56.10
32334;DHT22;18810;53.040;8.850;2023-04-03T16:46:52;15.30;56.60
32334;DHT22;18810;53.040;8.850;2023-04-03T16:49:18;15.00;58.20
32334;DHT22;18810;53.040;8.850;2023-04-03T16:51:44;14.60;58.60
32334;DHT22;18810;53.040;8.850;2023-04-03T16:54:10;14.30;59.30
32334;DHT22;18810;53.040;8.850;2023-04-03T16:56:38;14.30;59.70
32334;DHT22;18810;53.040;8.850;2023-04-03T16:59:03;14.40;59.70
32334;DHT22;18810;53.040;8.850;2023-04-03T17:01:29;14.60;60.30
32334;DHT22;18810;53.040;8.850;2023-04-03T17:03:55;14.40;59.20
32334;DHT22;18810;53.040;8.850;2023-04-03T17:06:21;14.20;59.30
32334;DHT22;18810;53.040;8.850;2023-04-03T17:08:49;14.10;59.80
32334;DHT22;18810;53.040;8.850;2023-04-03T17:11:15;14.20;59.30
32334;DHT22;18810;53.040;8.850;2023-04-03T17:13:41;14.20;59.30
32334;DHT22;18810;53.040;8.850;2023-04-03T17:16:10;13.90;59.80
32334;DHT22;18810;53.040;8.850;2023-04-03T17:18:36;13.50;60.20
32334;DHT22;18810;53.040;8.850;2023-04-03T17:21:03;13.00;61.20
32334;DHT22;18810;53.040;8.850;2023-04-03T17:23:29;12.70;61.70
32334;DHT22;18810;53.040;8.850;2023-04-03T17:25:55;12.40;62.40
32334;DHT22;18810;53.040;8.850;2023-04-03T17:28:22;12.00;63.10
32334;DHT22;18810;53.040;8.850;2023-04-03T17:30:54;11.80;63.90
32334;DHT22;18810;53.040;8.850;2023-04-03T17:33:20;11.40;64.50
32334;DHT22;18810;53.040;8.850;2023-04-03T17:35:46;11.30;64.40